sensor_id;sensor_type;location;lat;lon;timestamp;P1;durP1;ratioP1;P2;durP2;ratioP2
63394;SDS011;49531;-34.520;150.798;2022-09-16T00:00:25;3.40;;;1.38;;
63394;SDS011;49531;-34.520;150.798;2022-09-16T00:02:54;1.65;;;1.00;;
63394;SDS011;49531;-34.520;150.798;2022-09-16T00:05:21;1.50;;;1.00;;
63394;SDS011;49531;-34.520;150.798;2022-09-16T00:07:49;2.08;;;1.10;;
63394;SDS011;49531;-34.520;150.798;2022-09-16T00:10:16;2.92;;;1.25;;
63394;SDS011;49531;-34.520;150.798;2022-09-16T00:12:44;3.05;;;1.10;;
63394;SDS011;49531;-34.520;150.798;2022-09-16T00:15:11;1.95;;;1.00;;
63394;SDS011;49531;-34.520;150.798;2022-09-16T00:17:38;2.88;;;1.05;;
63394;SDS011;49531;-34.520;150.798;2022-09-16T00:20:05;3.38;;;1.20;;
63394;SDS011;49531;-34.520;150.798;2022-09-16T00:22:33;3.30;;;1.15;;
63394;SDS011;49531;-34.520;150.798;2022-09-16T00:25:00;2.50;;;1.20;;
63394;SDS011;49531;-34.520;150.798;2022-09-16T00:27:28;1.30;;;0.90;;
63394;SDS011;49531;-34.520;150.798;2022-09-16T00:29:55;1.92;;;0.95;;
63394;SDS011;49531;-34.520;150.798;2022-09-16T00:32:22;3.05;;;1.00;;
63394;SDS011;49531;-34.520;150.798;2022-09-16T00:34:50;2.08;;;0.90;;
63394;SDS011;49531;-34.520;150.798;2022-09-16T00:37:17;2.13;;;0.90;;
63394;SDS011;49531;-34.520;150.798;2022-09-16T00:39:47;2.03;;;0.88;;
63394;SDS011;49531;-34.520;150.798;2022-09-16T00:42:15;2.80;;;1.15;;
63394;SDS011;49531;-34.520;150.798;2022-09-16T00:44:52;2.28;;;0.90;;
63394;SDS011;49531;-34.520;150.798;2022-09-16T00:47:23;3.45;;;1.00;;
63394;SDS011;49531;-34.520;150.798;2022-09-16T00:49:57;2.30;;;0.80;;
63394;SDS011;49531;-34.520;150.798;2022-09-16T00:52:29;2.22;;;0.98;;
63394;SDS011;49531;-34.520;150.798;2022-09-16T00:54:57;3.10;;;0.85;;
63394;SDS011;49531;-34.520;150.798;2022-09-16T00:57:28;3.22;;;0.90;;
63394;SDS011;49531;-34.520;150.798;2022-09-16T00:59:55;1.80;;;1.05;;
63394;SDS011;49531;-34.520;150.798;2022-09-16T01:02:24;2.60;;;1.05;;
63394;SDS011;49531;-34.520;150.798;2022-09-16T01:04:58;3.03;;;0.80;;
63394;SDS011;49531;-34.520;150.798;2022-09-16T01:07:34;2.25;;;0.98;;
63394;SDS011;49531;-34.520;150.798;2022-09-16T01:10:10;2.38;;;1.00;;
63394;SDS011;49531;-34.520;150.798;2022-09-16T01:12:39;1.67;;;0.82;;
63394;SDS011;49531;-34.520;150.798;2022-09-16T01:15:10;1.20;;;0.80;;
63394;SDS011;49531;-34.520;150.798;2022-09-16T01:17:42;1.77;;;0.70;;
63394;SDS011;49531;-34.520;150.798;2022-09-16T01:20:42;1.52;;;0.77;;
63394;SDS011;49531;-34.520;150.798;2022-09-16T01:23:49;1.15;;;0.70;;
63394;SDS011;49531;-34.520;150.798;2022-09-16T01:26:56;1.67;;;0.70;;
63394;SDS011;49531;-34.520;150.798;2022-09-16T01:29:44;1.52;;;0.90;;
63394;SDS011;49531;-34.520;150.798;2022-09-16T01:32:41;1.80;;;0.70;;
63394;SDS011;49531;-34.520;150.798;2022-09-16T01:35:21;1.85;;;0.80;;
63394;SDS011;49531;-34.520;150.798;2022-09-16T01:38:09;2.72;;;0.90;;
63394;SDS011;49531;-34.520;150.798;2022-09-16T01:41:13;4.20;;;1.00;;
63394;SDS011;49531;-34.520;150.798;2022-09-16T01:44:09;2.03;;;0.80;;
63394;SDS011;49531;-34.520;150.798;2022-09-16T01:46:53;1.95;;;0.80;;
63394;SDS011;49531;-34.520;150.798;2022-09-16T01:49:34;2.75;;;0.70;;
63394;SDS011;49531;-34.520;150.798;2022-09-16T01:52:14;2.83;;;1.00;;
63394;SDS011;49531;-34.520;150.798;2022-09-16T01:54:51;1.23;;;0.75;;
63394;SDS011;49531;-34.520;150.798;2022-09-16T01:57:27;1.40;;;0.70;;
63394;SDS011;49531;-34.520;150.798;2022-09-16T02:00:13;2.15;;;0.80;;
63394;SDS011;49531;-34.520;150.798;2022-09-16T02:02:53;2.08;;;1.15;;
63394;SDS011;49531;-34.520;150.798;2022-09-16T02:07:56;1.60;;;0.70;;
63394;SDS011;49531;-34.520;150.798;2022-09-16T02:10:30;1.73;;;0.73;;
63394;SDS011;49531;-34.520;150.798;2022-09-16T02:13:06;1.33;;;0.68;;
63394;SDS011;49531;-34.520;150.798;2022-09-16T02:15:50;2.15;;;0.77;;
63394;SDS011;49531;-34.520;150.798;2022-09-16T02:18:21;3.15;;;0.90;;
63394;SDS011;49531;-34.520;150.798;2022-09-16T02:20:53;2.35;;;0.88;;
63394;SDS011;49531;-34.520;150.798;2022-09-16T02:23:24;1.75;;;0.68;;
63394;SDS011;49531;-34.520;150.798;2022-09-16T02:25:57;2.42;;;0.80;;
63394;SDS011;49531;-34.520;150.798;2022-09-16T02:28:30;1.38;;;0.68;;
63394;SDS011;49531;-34.520;150.798;2022-09-16T02:31:01;2.65;;;1.10;;
63394;SDS011;49531;-34.520;150.798;2022-09-16T02:33:33;2.22;;;0.80;;
63394;SDS011;49531;-34.520;150.798;2022-09-16T02:36:06;2.70;;;1.00;;
63394;SDS011;49531;-34.520;150.798;2022-09-16T02:38:37;4.43;;;0.90;;
63394;SDS011;49531;-34.520;150.798;2022-09-16T02:41:09;3.15;;;1.00;;
63394;SDS011;49531;-34.520;150.798;2022-09-16T02:43:40;3.88;;;0.80;;
63394;SDS011;49531;-34.520;150.798;2022-09-16T02:46:22;4.07;;;1.10;;
63394;SDS011;49531;-34.520;150.798;2022-09-16T02:49:11;1.88;;;0.82;;
63394;SDS011;49531;-34.520;150.798;2022-09-16T02:54:46;3.25;;;0.85;;
63394;SDS011;49531;-34.520;150.798;2022-09-16T02:57:36;3.20;;;0.80;;
63394;SDS011;49531;-34.520;150.798;2022-09-16T03:00:04;2.78;;;0.90;;
63394;SDS011;49531;-34.520;150.798;2022-09-16T03:02:33;3.17;;;1.00;;
63394;SDS011;49531;-34.520;150.798;2022-09-16T03:05:01;2.28;;;0.77;;
63394;SDS011;49531;-34.520;150.798;2022-09-16T03:07:28;3.50;;;0.93;;
63394;SDS011;49531;-34.520;150.798;2022-09-16T03:09:55;3.20;;;1.00;;
63394;SDS011;49531;-34.520;150.798;2022-09-16T03:12:32;2.42;;;0.80;;
63394;SDS011;49531;-34.520;150.798;2022-09-16T03:15:18;2.90;;;0.90;;
63394;SDS011;49531;-34.520;150.798;2022-09-16T03:18:04;1.30;;;0.70;;
63394;SDS011;49531;-34.520;150.798;2022-09-16T03:20:50;3.30;;;0.82;;
63394;SDS011;49531;-34.520;150.798;2022-09-16T03:23:28;2.15;;;0.90;;
63394;SDS011;49531;-34.520;150.798;2022-09-16T03:26:11;2.90;;;0.82;;
63394;SDS011;49531;-34.520;150.798;2022-09-16T03:28:54;3.90;;;1.00;;
63394;SDS011;49531;-34.520;150.798;2022-09-16T03:31:39;2.78;;;0.90;;
63394;SDS011;49531;-34.520;150.798;2022-09-16T03:34:19;3.78;;;1.00;;
63394;SDS011;49531;-34.520;150.798;2022-09-16T03:36:52;3.47;;;0.95;;
63394;SDS011;49531;-34.520;150.798;2022-09-16T03:39:24;4.13;;;0.93;;
63394;SDS011;49531;-34.520;150.798;2022-09-16T03:41:51;2.25;;;0.90;;
63394;SDS011;49531;-34.520;150.798;2022-09-16T03:44:19;1.88;;;0.80;;
63394;SDS011;49531;-34.520;150.798;2022-09-16T03:46:55;1.85;;;0.73;;
63394;SDS011;49531;-34.520;150.798;2022-09-16T03:49:22;3.30;;;0.82;;
63394;SDS011;49531;-34.520;150.798;2022-09-16T03:51:49;1.83;;;0.80;;
63394;SDS011;49531;-34.520;150.798;2022-09-16T03:54:16;3.55;;;0.93;;
63394;SDS011;49531;-34.520;150.798;2022-09-16T03:56:43;3.38;;;0.70;;
63394;SDS011;49531;-34.520;150.798;2022-09-16T03:59:10;2.08;;;0.82;;
63394;SDS011;49531;-34.520;150.798;2022-09-16T04:01:37;2.22;;;0.80;;
63394;SDS011;49531;-34.520;150.798;2022-09-16T04:04:05;1.83;;;0.75;;
63394;SDS011;49531;-34.520;150.798;2022-09-16T04:06:32;2.97;;;1.08;;
63394;SDS011;49531;-34.520;150.798;2022-09-16T04:09:01;2.28;;;0.82;;
63394;SDS011;49531;-34.520;150.798;2022-09-16T04:11:29;4.78;;;1.00;;
63394;SDS011;49531;-34.520;150.798;2022-09-16T04:13:57;1.95;;;0.80;;
63394;SDS011;49531;-34.520;150.798;2022-09-16T04:16:24;3.58;;;0.80;;
63394;SDS011;49531;-34.520;150.798;2022-09-16T04:18:52;2.00;;;0.80;;
63394;SDS011;49531;-34.520;150.798;2022-09-16T04:21:19;3.08;;;0.98;;
63394;SDS011;49531;-34.520;150.798;2022-09-16T04:23:47;2.65;;;0.82;;
63394;SDS011;49531;-34.520;150.798;2022-09-16T04:26:15;2.70;;;1.00;;
63394;SDS011;49531;-34.520;150.798;2022-09-16T04:28:43;4.45;;;1.00;;
63394;SDS011;49531;-34.520;150.798;2022-09-16T04:31:12;3.20;;;0.80;;
63394;SDS011;49531;-34.520;150.798;2022-09-16T04:33:40;3.08;;;0.95;;
63394;SDS011;49531;-34.520;150.798;2022-09-16T04:36:09;2.17;;;0.73;;
63394;SDS011;49531;-34.520;150.798;2022-09-16T04:38:39;2.90;;;0.80;;
63394;SDS011;49531;-34.520;150.798;2022-09-16T04:41:12;1.73;;;0.80;;
63394;SDS011;49531;-34.520;150.798;2022-09-16T04:43:41;3.22;;;0.82;;
63394;SDS011;49531;-34.520;150.798;2022-09-16T04:46:08;3.22;;;0.95;;
63394;SDS011;49531;-34.520;150.798;2022-09-16T04:48:35;2.97;;;0.88;;
63394;SDS011;49531;-34.520;150.798;2022-09-16T04:51:05;3.10;;;0.90;;
63394;SDS011;49531;-34.520;150.798;2022-09-16T04:53:35;2.70;;;0.93;;
63394;SDS011;49531;-34.520;150.798;2022-09-16T04:56:06;2.83;;;1.08;;
63394;SDS011;49531;-34.520;150.798;2022-09-16T04:58:37;2.50;;;1.10;;
63394;SDS011;49531;-34.520;150.798;2022-09-16T05:01:06;1.63;;;0.70;;
63394;SDS011;49531;-34.520;150.798;2022-09-16T05:03:38;2.72;;;0.90;;
63394;SDS011;49531;-34.520;150.798;2022-09-16T05:06:07;2.15;;;0.80;;
63394;SDS011;49531;-34.520;150.798;2022-09-16T05:08:36;3.17;;;0.90;;
63394;SDS011;49531;-34.520;150.798;2022-09-16T05:11:04;2.90;;;0.80;;
63394;SDS011;49531;-34.520;150.798;2022-09-16T05:13:33;4.53;;;1.20;;
63394;SDS011;49531;-34.520;150.798;2022-09-16T05:16:01;2.50;;;0.90;;
63394;SDS011;49531;-34.520;150.798;2022-09-16T05:18:30;1.55;;;0.63;;
63394;SDS011;49531;-34.520;150.798;2022-09-16T05:20:58;5.38;;;0.80;;
63394;SDS011;49531;-34.520;150.798;2022-09-16T05:23:26;2.53;;;0.90;;
63394;SDS011;49531;-34.520;150.798;2022-09-16T05:25:53;2.65;;;0.90;;
63394;SDS011;49531;-34.520;150.798;2022-09-16T05:28:20;8.70;;;1.00;;
63394;SDS011;49531;-34.520;150.798;2022-09-16T05:30:47;4.35;;;0.90;;
63394;SDS011;49531;-34.520;150.798;2022-09-16T05:33:14;5.88;;;0.90;;
63394;SDS011;49531;-34.520;150.798;2022-09-16T05:35:42;2.00;;;0.80;;
63394;SDS011;49531;-34.520;150.798;2022-09-16T05:38:10;2.03;;;0.80;;
63394;SDS011;49531;-34.520;150.798;2022-09-16T05:40:38;2.30;;;0.80;;
63394;SDS011;49531;-34.520;150.798;2022-09-16T05:43:05;2.33;;;0.98;;
63394;SDS011;49531;-34.520;150.798;2022-09-16T05:45:32;2.10;;;0.80;;
63394;SDS011;49531;-34.520;150.798;2022-09-16T05:47:59;2.42;;;0.93;;
63394;SDS011;49531;-34.520;150.798;2022-09-16T05:50:26;2.45;;;0.90;;
63394;SDS011;49531;-34.520;150.798;2022-09-16T05:52:53;4.30;;;0.75;;
63394;SDS011;49531;-34.520;150.798;2022-09-16T05:55:20;3.88;;;0.90;;
63394;SDS011;49531;-34.520;150.798;2022-09-16T05:57:47;1.58;;;0.90;;
63394;SDS011;49531;-34.520;150.798;2022-09-16T06:00:15;1.98;;;0.90;;
63394;SDS011;49531;-34.520;150.798;2022-09-16T06:02:42;1.95;;;0.80;;
63394;SDS011;49531;-34.520;150.798;2022-09-16T06:05:09;2.80;;;0.80;;
63394;SDS011;49531;-34.520;150.798;2022-09-16T06:07:36;3.65;;;0.95;;
63394;SDS011;49531;-34.520;150.798;2022-09-16T06:10:03;2.40;;;0.77;;
63394;SDS011;49531;-34.520;150.798;2022-09-16T06:12:31;1.30;;;0.60;;
63394;SDS011;49531;-34.520;150.798;2022-09-16T06:14:58;1.88;;;0.77;;
63394;SDS011;49531;-34.520;150.798;2022-09-16T06:17:26;2.35;;;0.80;;
63394;SDS011;49531;-34.520;150.798;2022-09-16T06:19:53;1.70;;;0.80;;
63394;SDS011;49531;-34.520;150.798;2022-09-16T06:22:20;2.42;;;0.82;;
63394;SDS011;49531;-34.520;150.798;2022-09-16T06:24:47;2.47;;;0.82;;
63394;SDS011;49531;-34.520;150.798;2022-09-16T06:27:16;1.80;;;0.70;;
63394;SDS011;49531;-34.520;150.798;2022-09-16T06:29:43;2.58;;;0.80;;
63394;SDS011;49531;-34.520;150.798;2022-09-16T06:32:10;2.90;;;1.10;;
63394;SDS011;49531;-34.520;150.798;2022-09-16T06:34:37;3.30;;;0.85;;
63394;SDS011;49531;-34.520;150.798;2022-09-16T06:37:04;2.40;;;0.90;;
63394;SDS011;49531;-34.520;150.798;2022-09-16T06:39:31;2.72;;;0.90;;
63394;SDS011;49531;-34.520;150.798;2022-09-16T06:41:58;1.73;;;0.88;;
63394;SDS011;49531;-34.520;150.798;2022-09-16T06:44:25;2.13;;;0.82;;
63394;SDS011;49531;-34.520;150.798;2022-09-16T06:46:53;1.35;;;0.60;;
63394;SDS011;49531;-34.520;150.798;2022-09-16T06:49:20;3.55;;;1.00;;
63394;SDS011;49531;-34.520;150.798;2022-09-16T06:51:47;1.75;;;0.95;;
63394;SDS011;49531;-34.520;150.798;2022-09-16T06:54:16;7.25;;;1.50;;
63394;SDS011;49531;-34.520;150.798;2022-09-16T06:56:43;2.20;;;0.77;;
63394;SDS011;49531;-34.520;150.798;2022-09-16T06:59:10;5.60;;;1.23;;
63394;SDS011;49531;-34.520;150.798;2022-09-16T07:01:39;4.25;;;0.90;;
63394;SDS011;49531;-34.520;150.798;2022-09-16T07:04:07;2.70;;;0.90;;
63394;SDS011;49531;-34.520;150.798;2022-09-16T07:06:37;2.70;;;1.00;;
63394;SDS011;49531;-34.520;150.798;2022-09-16T07:09:05;2.97;;;0.90;;
63394;SDS011;49531;-34.520;150.798;2022-09-16T07:11:33;4.05;;;1.20;;
63394;SDS011;49531;-34.520;150.798;2022-09-16T07:14:00;1.15;;;0.60;;
63394;SDS011;49531;-34.520;150.798;2022-09-16T07:16:27;3.45;;;0.85;;
63394;SDS011;49531;-34.520;150.798;2022-09-16T07:18:55;1.52;;;0.70;;
63394;SDS011;49531;-34.520;150.798;2022-09-16T07:21:24;2.95;;;0.90;;
63394;SDS011;49531;-34.520;150.798;2022-09-16T07:23:54;2.42;;;0.90;;
63394;SDS011;49531;-34.520;150.798;2022-09-16T07:26:24;3.20;;;1.00;;
63394;SDS011;49531;-34.520;150.798;2022-09-16T07:28:53;2.58;;;0.95;;
63394;SDS011;49531;-34.520;150.798;2022-09-16T07:31:21;3.42;;;1.30;;
63394;SDS011;49531;-34.520;150.798;2022-09-16T07:33:51;3.70;;;1.65;;
63394;SDS011;49531;-34.520;150.798;2022-09-16T07:36:21;3.22;;;1.60;;
63394;SDS011;49531;-34.520;150.798;2022-09-16T07:38:50;4.85;;;2.13;;
63394;SDS011;49531;-34.520;150.798;2022-09-16T07:41:18;4.05;;;1.67;;
63394;SDS011;49531;-34.520;150.798;2022-09-16T07:43:47;4.55;;;1.80;;
63394;SDS011;49531;-34.520;150.798;2022-09-16T07:46:15;4.40;;;1.30;;
63394;SDS011;49531;-34.520;150.798;2022-09-16T07:48:46;3.50;;;1.27;;
63394;SDS011;49531;-34.520;150.798;2022-09-16T07:51:15;3.13;;;1.20;;
63394;SDS011;49531;-34.520;150.798;2022-09-16T07:53:44;2.97;;;1.10;;
63394;SDS011;49531;-34.520;150.798;2022-09-16T07:56:14;3.63;;;1.30;;
63394;SDS011;49531;-34.520;150.798;2022-09-16T07:58:43;3.50;;;1.42;;
63394;SDS011;49531;-34.520;150.798;2022-09-16T08:01:12;4.50;;;1.80;;
63394;SDS011;49531;-34.520;150.798;2022-09-16T08:03:41;4.03;;;1.50;;
63394;SDS011;49531;-34.520;150.798;2022-09-16T08:06:11;3.72;;;1.35;;
63394;SDS011;49531;-34.520;150.798;2022-09-16T08:08:41;5.72;;;1.83;;
63394;SDS011;49531;-34.520;150.798;2022-09-16T08:11:09;3.72;;;1.48;;
63394;SDS011;49531;-34.520;150.798;2022-09-16T08:13:39;4.05;;;1.77;;
63394;SDS011;49531;-34.520;150.798;2022-09-16T08:16:09;4.18;;;1.55;;
63394;SDS011;49531;-34.520;150.798;2022-09-16T08:18:38;4.85;;;1.60;;
63394;SDS011;49531;-34.520;150.798;2022-09-16T08:21:06;4.68;;;1.42;;
63394;SDS011;49531;-34.520;150.798;2022-09-16T08:23:35;5.05;;;1.38;;
63394;SDS011;49531;-34.520;150.798;2022-09-16T08:26:03;4.13;;;1.33;;
63394;SDS011;49531;-34.520;150.798;2022-09-16T08:28:32;3.58;;;1.50;;
63394;SDS011;49531;-34.520;150.798;2022-09-16T08:31:00;3.22;;;1.10;;
63394;SDS011;49531;-34.520;150.798;2022-09-16T08:33:27;2.92;;;1.10;;
63394;SDS011;49531;-34.520;150.798;2022-09-16T08:35:59;3.85;;;1.00;;
63394;SDS011;49531;-34.520;150.798;2022-09-16T08:38:30;2.90;;;1.10;;
63394;SDS011;49531;-34.520;150.798;2022-09-16T08:41:01;4.43;;;1.10;;
63394;SDS011;49531;-34.520;150.798;2022-09-16T08:43:48;2.90;;;0.90;;
63394;SDS011;49531;-34.520;150.798;2022-09-16T08:46:33;4.10;;;1.10;;
63394;SDS011;49531;-34.520;150.798;2022-09-16T08:49:15;5.82;;;1.33;;
63394;SDS011;49531;-34.520;150.798;2022-09-16T08:51:58;2.95;;;1.02;;
63394;SDS011;49531;-34.520;150.798;2022-09-16T08:54:35;2.47;;;0.90;;
63394;SDS011;49531;-34.520;150.798;2022-09-16T08:57:08;5.13;;;1.05;;
63394;SDS011;49531;-34.520;150.798;2022-09-16T08:59:43;4.45;;;1.20;;
63394;SDS011;49531;-34.520;150.798;2022-09-16T09:02:20;4.45;;;1.20;;
63394;SDS011;49531;-34.520;150.798;2022-09-16T09:05:13;3.72;;;1.17;;
63394;SDS011;49531;-34.520;150.798;2022-09-16T09:10:52;3.08;;;1.10;;
63394;SDS011;49531;-34.520;150.798;2022-09-16T09:13:37;2.90;;;0.95;;
63394;SDS011;49531;-34.520;150.798;2022-09-16T09:16:24;4.25;;;1.27;;
63394;SDS011;49531;-34.520;150.798;2022-09-16T09:19:32;3.15;;;1.10;;
63394;SDS011;49531;-34.520;150.798;2022-09-16T09:22:20;5.28;;;1.10;;
63394;SDS011;49531;-34.520;150.798;2022-09-16T09:25:23;5.35;;;1.35;;
63394;SDS011;49531;-34.520;150.798;2022-09-16T09:28:37;5.78;;;1.10;;
63394;SDS011;49531;-34.520;150.798;2022-09-16T09:31:04;4.97;;;1.20;;
63394;SDS011;49531;-34.520;150.798;2022-09-16T09:33:51;3.63;;;1.10;;
63394;SDS011;49531;-34.520;150.798;2022-09-16T09:36:44;5.10;;;1.00;;
63394;SDS011;49531;-34.520;150.798;2022-09-16T09:39:34;3.15;;;1.08;;
63394;SDS011;49531;-34.520;150.798;2022-09-16T09:42:20;4.43;;;1.08;;
63394;SDS011;49531;-34.520;150.798;2022-09-16T09:47:48;2.28;;;0.98;;
63394;SDS011;49531;-34.520;150.798;2022-09-16T09:50:27;3.95;;;1.13;;
63394;SDS011;49531;-34.520;150.798;2022-09-16T09:53:10;4.18;;;1.17;;
63394;SDS011;49531;-34.520;150.798;2022-09-16T09:55:51;2.80;;;0.85;;
63394;SDS011;49531;-34.520;150.798;2022-09-16T09:58:31;2.72;;;1.10;;
63394;SDS011;49531;-34.520;150.798;2022-09-16T10:01:07;3.45;;;1.13;;
63394;SDS011;49531;-34.520;150.798;2022-09-16T10:03:35;3.90;;;1.05;;
63394;SDS011;49531;-34.520;150.798;2022-09-16T10:06:04;2.47;;;1.02;;
63394;SDS011;49531;-34.520;150.798;2022-09-16T10:08:35;2.00;;;0.80;;
63394;SDS011;49531;-34.520;150.798;2022-09-16T10:11:17;3.00;;;1.02;;
63394;SDS011;49531;-34.520;150.798;2022-09-16T10:13:47;3.92;;;1.25;;
63394;SDS011;49531;-34.520;150.798;2022-09-16T10:16:18;4.13;;;1.10;;
63394;SDS011;49531;-34.520;150.798;2022-09-16T10:19:06;2.10;;;0.90;;
63394;SDS011;49531;-34.520;150.798;2022-09-16T10:21:46;4.70;;;1.35;;
63394;SDS011;49531;-34.520;150.798;2022-09-16T10:24:28;2.53;;;0.98;;
63394;SDS011;49531;-34.520;150.798;2022-09-16T10:26:58;4.15;;;1.00;;
63394;SDS011;49531;-34.520;150.798;2022-09-16T10:29:27;3.03;;;0.98;;
63394;SDS011;49531;-34.520;150.798;2022-09-16T10:31:54;2.60;;;0.90;;
63394;SDS011;49531;-34.520;150.798;2022-09-16T10:34:26;4.25;;;1.17;;
63394;SDS011;49531;-34.520;150.798;2022-09-16T10:37:00;3.10;;;1.02;;
63394;SDS011;49531;-34.520;150.798;2022-09-16T10:39:39;3.47;;;1.00;;
63394;SDS011;49531;-34.520;150.798;2022-09-16T10:42:16;3.60;;;1.10;;
63394;SDS011;49531;-34.520;150.798;2022-09-16T10:44:46;3.15;;;1.15;;
63394;SDS011;49531;-34.520;150.798;2022-09-16T10:47:20;3.40;;;1.05;;
63394;SDS011;49531;-34.520;150.798;2022-09-16T10:49:55;2.38;;;0.95;;
63394;SDS011;49531;-34.520;150.798;2022-09-16T10:52:27;3.42;;;1.00;;
63394;SDS011;49531;-34.520;150.798;2022-09-16T10:54:55;2.03;;;0.93;;
63394;SDS011;49531;-34.520;150.798;2022-09-16T10:57:35;2.78;;;1.13;;
63394;SDS011;49531;-34.520;150.798;2022-09-16T11:00:20;2.40;;;1.00;;
63394;SDS011;49531;-34.520;150.798;2022-09-16T11:05:56;4.22;;;1.25;;
63394;SDS011;49531;-34.520;150.798;2022-09-16T11:08:46;2.83;;;1.05;;
63394;SDS011;49531;-34.520;150.798;2022-09-16T11:11:29;3.63;;;1.25;;
63394;SDS011;49531;-34.520;150.798;2022-09-16T11:14:25;1.45;;;0.88;;
63394;SDS011;49531;-34.520;150.798;2022-09-16T11:17:12;2.42;;;0.90;;
63394;SDS011;49531;-34.520;150.798;2022-09-16T11:22:58;5.35;;;1.05;;
63394;SDS011;49531;-34.520;150.798;2022-09-16T11:25:52;5.47;;;1.15;;
63394;SDS011;49531;-34.520;150.798;2022-09-16T11:28:46;2.60;;;1.10;;
63394;SDS011;49531;-34.520;150.798;2022-09-16T11:31:35;1.35;;;0.80;;
63394;SDS011;49531;-34.520;150.798;2022-09-16T11:34:16;2.25;;;0.98;;
63394;SDS011;49531;-34.520;150.798;2022-09-16T11:37:02;2.00;;;0.82;;
63394;SDS011;49531;-34.520;150.798;2022-09-16T11:48:40;2.47;;;1.05;;
63394;SDS011;49531;-34.520;150.798;2022-09-16T11:54:33;3.20;;;1.10;;
63394;SDS011;49531;-34.520;150.798;2022-09-16T11:57:16;2.05;;;0.90;;
63394;SDS011;49531;-34.520;150.798;2022-09-16T11:59:51;2.25;;;1.05;;
63394;SDS011;49531;-34.520;150.798;2022-09-16T12:05:26;2.78;;;1.00;;
63394;SDS011;49531;-34.520;150.798;2022-09-16T12:08:03;4.15;;;0.90;;
63394;SDS011;49531;-34.520;150.798;2022-09-16T12:10:53;3.10;;;0.90;;
63394;SDS011;49531;-34.520;150.798;2022-09-16T12:13:28;2.15;;;0.90;;
63394;SDS011;49531;-34.520;150.798;2022-09-16T12:16:02;3.63;;;1.10;;
63394;SDS011;49531;-34.520;150.798;2022-09-16T12:18:35;2.10;;;0.90;;
63394;SDS011;49531;-34.520;150.798;2022-09-16T12:21:09;2.45;;;1.00;;
63394;SDS011;49531;-34.520;150.798;2022-09-16T12:23:47;2.60;;;0.80;;
63394;SDS011;49531;-34.520;150.798;2022-09-16T12:26:26;1.40;;;0.90;;
63394;SDS011;49531;-34.520;150.798;2022-09-16T12:29:05;2.97;;;0.90;;
63394;SDS011;49531;-34.520;150.798;2022-09-16T12:31:51;2.25;;;0.90;;
63394;SDS011;49531;-34.520;150.798;2022-09-16T12:34:27;2.30;;;1.00;;
63394;SDS011;49531;-34.520;150.798;2022-09-16T12:37:21;1.95;;;0.80;;
63394;SDS011;49531;-34.520;150.798;2022-09-16T12:39:59;3.47;;;1.00;;
63394;SDS011;49531;-34.520;150.798;2022-09-16T12:42:39;1.98;;;0.85;;
63394;SDS011;49531;-34.520;150.798;2022-09-16T12:45:24;3.22;;;1.10;;
63394;SDS011;49531;-34.520;150.798;2022-09-16T12:54:07;2.25;;;1.00;;
63394;SDS011;49531;-34.520;150.798;2022-09-16T12:57:06;3.13;;;1.05;;
63394;SDS011;49531;-34.520;150.798;2022-09-16T13:00:00;3.22;;;1.10;;
63394;SDS011;49531;-34.520;150.798;2022-09-16T13:02:37;3.70;;;1.30;;
63394;SDS011;49531;-34.520;150.798;2022-09-16T13:05:11;3.50;;;1.20;;
63394;SDS011;49531;-34.520;150.798;2022-09-16T13:07:47;2.55;;;1.20;;
63394;SDS011;49531;-34.520;150.798;2022-09-16T13:10:20;2.63;;;1.02;;
63394;SDS011;49531;-34.520;150.798;2022-09-16T13:13:00;1.92;;;1.00;;
63394;SDS011;49531;-34.520;150.798;2022-09-16T13:15:29;4.85;;;1.13;;
63394;SDS011;49531;-34.520;150.798;2022-09-16T13:18:09;4.07;;;1.10;;
63394;SDS011;49531;-34.520;150.798;2022-09-16T13:20:59;4.13;;;1.27;;
63394;SDS011;49531;-34.520;150.798;2022-09-16T13:23:39;3.03;;;1.17;;
63394;SDS011;49531;-34.520;150.798;2022-09-16T13:26:10;2.17;;;1.10;;
63394;SDS011;49531;-34.520;150.798;2022-09-16T13:28:40;2.13;;;0.93;;
63394;SDS011;49531;-34.520;150.798;2022-09-16T13:31:15;2.78;;;1.10;;
63394;SDS011;49531;-34.520;150.798;2022-09-16T13:33:45;3.00;;;1.27;;
63394;SDS011;49531;-34.520;150.798;2022-09-16T13:36:31;5.57;;;1.10;;
63394;SDS011;49531;-34.520;150.798;2022-09-16T13:39:00;3.70;;;1.20;;
63394;SDS011;49531;-34.520;150.798;2022-09-16T13:41:39;2.60;;;1.00;;
63394;SDS011;49531;-34.520;150.798;2022-09-16T13:47:06;4.47;;;1.08;;
63394;SDS011;49531;-34.520;150.798;2022-09-16T13:49:46;2.35;;;0.98;;
63394;SDS011;49531;-34.520;150.798;2022-09-16T13:52:20;2.00;;;1.02;;
63394;SDS011;49531;-34.520;150.798;2022-09-16T13:54:55;3.28;;;1.00;;
63394;SDS011;49531;-34.520;150.798;2022-09-16T13:57:40;2.30;;;0.90;;
63394;SDS011;49531;-34.520;150.798;2022-09-16T14:00:23;3.15;;;1.30;;
63394;SDS011;49531;-34.520;150.798;2022-09-16T14:08:09;1.92;;;0.93;;
63394;SDS011;49531;-34.520;150.798;2022-09-16T14:10:55;4.53;;;1.20;;
63394;SDS011;49531;-34.520;150.798;2022-09-16T14:13:35;3.00;;;1.10;;
63394;SDS011;49531;-34.520;150.798;2022-09-16T14:16:11;2.80;;;1.10;;
63394;SDS011;49531;-34.520;150.798;2022-09-16T14:18:46;3.72;;;1.10;;
63394;SDS011;49531;-34.520;150.798;2022-09-16T14:21:20;1.83;;;0.93;;
63394;SDS011;49531;-34.520;150.798;2022-09-16T14:23:49;3.05;;;1.10;;
63394;SDS011;49531;-34.520;150.798;2022-09-16T14:26:18;1.38;;;0.80;;
63394;SDS011;49531;-34.520;150.798;2022-09-16T14:28:47;3.55;;;1.00;;
63394;SDS011;49531;-34.520;150.798;2022-09-16T14:31:16;1.70;;;0.90;;
63394;SDS011;49531;-34.520;150.798;2022-09-16T14:33:50;3.20;;;0.98;;
63394;SDS011;49531;-34.520;150.798;2022-09-16T14:36:25;2.38;;;0.90;;
63394;SDS011;49531;-34.520;150.798;2022-09-16T14:38:57;1.98;;;0.90;;
63394;SDS011;49531;-34.520;150.798;2022-09-16T14:41:37;2.08;;;0.90;;
63394;SDS011;49531;-34.520;150.798;2022-09-16T14:44:24;2.90;;;1.10;;
63394;SDS011;49531;-34.520;150.798;2022-09-16T14:47:04;3.40;;;1.15;;
63394;SDS011;49531;-34.520;150.798;2022-09-16T14:49:44;1.95;;;0.82;;
63394;SDS011;49531;-34.520;150.798;2022-09-16T14:52:19;5.35;;;1.00;;
63394;SDS011;49531;-34.520;150.798;2022-09-16T14:54:48;1.58;;;0.80;;
63394;SDS011;49531;-34.520;150.798;2022-09-16T14:57:19;3.85;;;1.23;;
63394;SDS011;49531;-34.520;150.798;2022-09-16T14:59:49;3.17;;;1.27;;
63394;SDS011;49531;-34.520;150.798;2022-09-16T15:02:21;3.38;;;1.10;;
63394;SDS011;49531;-34.520;150.798;2022-09-16T15:04:55;2.67;;;0.90;;
63394;SDS011;49531;-34.520;150.798;2022-09-16T15:07:26;2.05;;;0.90;;
63394;SDS011;49531;-34.520;150.798;2022-09-16T15:09:59;2.05;;;0.90;;
63394;SDS011;49531;-34.520;150.798;2022-09-16T15:12:36;3.28;;;1.20;;
63394;SDS011;49531;-34.520;150.798;2022-09-16T15:15:14;1.95;;;0.93;;
63394;SDS011;49531;-34.520;150.798;2022-09-16T15:17:54;3.67;;;1.20;;
63394;SDS011;49531;-34.520;150.798;2022-09-16T15:20:29;1.88;;;1.00;;
63394;SDS011;49531;-34.520;150.798;2022-09-16T15:22:59;1.90;;;1.00;;
63394;SDS011;49531;-34.520;150.798;2022-09-16T15:25:29;2.92;;;1.00;;
63394;SDS011;49531;-34.520;150.798;2022-09-16T15:28:03;3.20;;;1.20;;
63394;SDS011;49531;-34.520;150.798;2022-09-16T15:30:33;1.80;;;0.90;;
63394;SDS011;49531;-34.520;150.798;2022-09-16T15:35:58;2.45;;;1.10;;
63394;SDS011;49531;-34.520;150.798;2022-09-16T15:38:26;4.15;;;1.00;;